AAS weather

Apalapsili Airport
Apalapsili, Papua, Indonesia

Public forecast

Using degrees Celsius for public forecast. Weather courtesy of forecast.io.

Closest aviation weather report (METAR) to Apalapsili Airport

Closest report is Sentani International Airport, 106.6 nm (197.5 km) NE. Retrieved 2019/12/06 05:30 UTC (0 seconds ago):

WAJJ 060530Z 04002KT 9999 FEW012CB SCT013 33/23 Q1006 NOSIG

Closest aviation forecast (TAF) to Apalapsili Airport

Forecast is more than 12 hours old.

Closest forecast is Sentani International Airport, 106.6 nm (197.5 km) NE. Retrieved 2013/03/11 12:00 UTC (7 years ago):

TAF WAJJ 111100Z 1112/1212 29006KT 5000 HZ SCT016 TEMPO 1113/1121 4000 RA FEW014CB BECMG 1200/1202 28012KT 9999 TEMPO 1207/1212 6000 RA FEW014CB